createdAt,value
2018-01-07T00:00:03.614Z,97.64
2018-01-07T00:01:03.853Z,97.36
2018-01-07T00:02:03.846Z,97.17
2018-01-07T00:03:03.826Z,98.02
2018-01-07T00:04:03.821Z,97.12
2018-01-07T00:05:03.801Z,97.36
2018-01-07T00:06:03.786Z,97.17
2018-01-07T00:07:03.772Z,97.36
2018-01-07T00:08:03.509Z,97.17
2018-01-07T00:09:03.748Z,97.36
2018-01-07T00:10:03.476Z,97.36
2018-01-07T00:11:03.722Z,97.55
2018-01-07T00:12:03.716Z,97.55
2018-01-07T00:13:03.703Z,97.55
2018-01-07T00:14:03.695Z,97.55
2018-01-07T00:15:03.671Z,97.64
2018-01-07T00:16:03.657Z,97.55
2018-01-07T00:17:03.651Z,97.36
2018-01-07T00:18:03.632Z,97.55
2018-01-07T00:19:03.627Z,97.64
2018-01-07T00:20:03.613Z,97.64
2018-01-07T00:21:03.597Z,97.36
2018-01-07T00:22:03.589Z,97.64
2018-01-07T00:23:03.571Z,97.55
2018-01-07T00:24:03.615Z,97.26
2018-01-07T00:25:03.547Z,97.45
2018-01-07T00:26:03.525Z,97.64
2018-01-07T00:27:03.521Z,97.74
2018-01-07T00:28:03.502Z,97.83
2018-01-07T00:29:03.489Z,97.36
2018-01-07T00:30:03.475Z,97.74
2018-01-07T00:31:03.465Z,97.45
2018-01-07T00:32:03.452Z,97.55
2018-01-07T00:33:03.442Z,97.36
2018-01-07T00:34:03.427Z,97.36
2018-01-07T00:35:03.421Z,97.55
2018-01-07T00:36:03.398Z,97.74
2018-01-07T00:37:03.392Z,97.55
2018-01-07T00:38:03.370Z,97.26
2018-01-07T00:39:03.410Z,97.55
2018-01-07T00:40:03.349Z,97.45
2018-01-07T00:41:03.332Z,97.17
2018-01-07T00:42:03.069Z,97.55
2018-01-07T00:43:03.304Z,97.74
2018-01-07T00:44:03.307Z,97.36
2018-01-07T00:45:03.298Z,97.36
2018-01-07T00:46:03.010Z,97.17
2018-01-07T00:47:03.273Z,96.69
2018-01-07T00:48:03.247Z,96.78
2018-01-07T00:49:03.238Z,96.78
2018-01-07T00:50:02.957Z,96.55
2018-01-07T00:51:03.210Z,96.97
2018-01-07T00:52:03.199Z,96.59
2018-01-07T00:53:03.191Z,96.41
2018-01-07T00:54:03.167Z,96.55
2018-01-07T00:55:03.154Z,96.41
2018-01-07T00:56:03.136Z,96.69
2018-01-07T00:57:03.133Z,96.73
2018-01-07T00:58:03.121Z,96.55
2018-01-07T00:59:03.100Z,96.36
2018-01-07T01:00:03.102Z,96.59
2018-01-07T01:01:03.074Z,96.73
2018-01-07T01:02:03.060Z,96.59
2018-01-07T01:03:03.059Z,96.78
2018-01-07T01:04:03.039Z,96.5
2018-01-07T01:05:03.037Z,96.41
2018-01-07T01:06:03.009Z,95.88
2018-01-07T01:07:02.997Z,96.69
2018-01-07T01:08:02.986Z,96.22
2018-01-07T01:09:02.969Z,95.79
2018-01-07T01:10:02.971Z,96.64
2018-01-07T01:11:02.952Z,96.64
2018-01-07T01:12:02.686Z,96.73
2018-01-07T01:13:02.913Z,96.08
2018-01-07T01:14:02.907Z,96.55
2018-01-07T01:15:02.900Z,96.26
2018-01-07T01:16:02.875Z,95.98
2018-01-07T01:17:02.864Z,96.08
2018-01-07T01:18:02.850Z,95.98
2018-01-07T01:19:02.837Z,95.98
2018-01-07T01:20:02.834Z,96.08
2018-01-07T01:21:02.560Z,96.36
2018-01-07T01:22:02.808Z,96.73
2018-01-07T01:23:02.798Z,96.36
2018-01-07T01:24:02.806Z,95.98
2018-01-07T01:25:02.763Z,96.08
2018-01-07T01:26:02.755Z,95.98
2018-01-07T01:27:02.730Z,96.17
2018-01-07T01:28:02.717Z,96.73
2018-01-07T01:29:02.713Z,96.64
2018-01-07T01:30:02.700Z,96.17
2018-01-07T01:31:02.691Z,95.98
2018-01-07T01:32:02.673Z,96.26
2018-01-07T01:33:02.667Z,95.79
2018-01-07T01:34:02.643Z,96.36
2018-01-07T01:35:02.635Z,96.73
2018-01-07T01:36:02.616Z,96.17
2018-01-07T01:37:02.613Z,96.64
2018-01-07T01:38:02.587Z,96.36
2018-01-07T01:39:02.326Z,96.36
2018-01-07T01:40:02.572Z,95.79
2018-01-07T01:41:02.561Z,96.17
2018-01-07T01:42:02.542Z,95.88
2018-01-07T01:43:02.540Z,95.5
2018-01-07T01:44:02.521Z,96.26
2018-01-07T01:45:02.504Z,95.69
2018-01-07T01:46:02.492Z,95.98
2018-01-07T01:47:02.220Z,95.88
2018-01-07T01:48:02.456Z,95.79
2018-01-07T01:49:02.443Z,95.69
2018-01-07T01:50:02.443Z,95.31
2018-01-07T01:51:02.422Z,95.31
2018-01-07T01:52:02.429Z,95.5
2018-01-07T01:53:02.408Z,95.88
2018-01-07T01:54:02.384Z,95.69
2018-01-07T01:55:02.367Z,95.69
2018-01-07T01:56:02.352Z,95.6
2018-01-07T01:57:02.341Z,95.41
2018-01-07T01:58:02.329Z,95.6
2018-01-07T01:59:02.311Z,95.69
2018-01-07T02:00:02.300Z,95.22
2018-01-07T02:01:02.294Z,94.93
2018-01-07T02:02:02.281Z,95.69
2018-01-07T02:03:02.258Z,95.69
2018-01-07T02:04:02.248Z,95.6
2018-01-07T02:05:02.244Z,94.84
2018-01-07T02:06:02.223Z,95.41
2018-01-07T02:07:02.209Z,95.41
2018-01-07T02:08:02.194Z,95.5
2018-01-07T02:09:01.927Z,95.31
2018-01-07T02:10:02.173Z,95.31
2018-01-07T02:11:01.897Z,95.69
2018-01-07T02:12:02.151Z,95.31
2018-01-07T02:13:02.137Z,95.5
2018-01-07T02:14:02.115Z,95.31
2018-01-07T02:15:02.102Z,95.79
2018-01-07T02:16:02.097Z,95.79
2018-01-07T02:17:02.075Z,95.79
2018-01-07T02:18:02.063Z,95.41
2018-01-07T02:19:02.067Z,95.69
2018-01-07T02:20:02.034Z,95.79
2018-01-07T02:21:02.081Z,95.41
2018-01-07T02:22:02.011Z,95.79
2018-01-07T02:23:02.000Z,95.79
2018-01-07T02:24:01.981Z,95.88
2018-01-07T02:25:01.968Z,95.6
2018-01-07T02:26:01.964Z,95.6
2018-01-07T02:27:01.951Z,95.6
2018-01-07T02:28:01.933Z,96.08
2018-01-07T02:29:01.947Z,96.08
2018-01-07T02:30:01.908Z,95.98
2018-01-07T02:31:01.915Z,95.88
2018-01-07T02:32:01.885Z,96.08
2018-01-07T02:33:01.864Z,96.08
2018-01-07T02:34:01.861Z,96.08
2018-01-07T02:35:01.860Z,95.79
2018-01-07T02:36:01.827Z,96.08
2018-01-07T02:37:01.812Z,96.08
2018-01-07T02:38:01.799Z,96.17
2018-01-07T02:39:01.788Z,96.17
2018-01-07T02:40:01.769Z,95.98
2018-01-07T02:41:01.764Z,96.26
2018-01-07T02:42:01.757Z,95.69
2018-01-07T02:43:01.736Z,96.08
2018-01-07T02:44:01.718Z,96.55
2018-01-07T02:45:01.704Z,96.45
2018-01-07T02:46:01.705Z,95.98
2018-01-07T02:47:01.732Z,96.26
2018-01-07T02:48:01.680Z,96.17
2018-01-07T02:49:01.665Z,96.26
2018-01-07T02:50:01.656Z,95.88
2018-01-07T02:51:01.635Z,96.08
2018-01-07T02:52:01.624Z,95.69
2018-01-07T02:53:01.612Z,95.79
2018-01-07T02:54:01.596Z,95.31
2018-01-07T02:55:01.318Z,95.22
2018-01-07T02:56:01.576Z,95.79
2018-01-07T02:57:01.547Z,95.41
2018-01-07T02:58:01.537Z,95.41
2018-01-07T02:59:01.525Z,95.41
2018-01-07T03:00:01.513Z,95.41
2018-01-07T03:01:01.507Z,95.31
2018-01-07T03:02:01.489Z,95.41
2018-01-07T03:03:01.471Z,95.6
2018-01-07T03:04:01.459Z,95.41
2018-01-07T03:05:01.452Z,95.69
2018-01-07T03:06:01.431Z,95.79
2018-01-07T03:07:01.426Z,95.41
2018-01-07T03:08:01.475Z,95.12
2018-01-07T03:09:01.391Z,95.5
2018-01-07T03:10:01.378Z,95.22
2018-01-07T03:11:01.372Z,95.5
2018-01-07T03:12:01.350Z,95.6
2018-01-07T03:13:01.354Z,95.31
2018-01-07T03:14:01.327Z,95.5
2018-01-07T03:15:01.314Z,95.41
2018-01-07T03:16:01.307Z,95.41
2018-01-07T03:17:01.300Z,95.31
2018-01-07T03:18:01.284Z,95.6
2018-01-07T03:19:01.308Z,95.31
2018-01-07T03:20:01.247Z,95.79
2018-01-07T03:21:01.238Z,95.5
2018-01-07T03:22:00.962Z,95.6
2018-01-07T03:23:01.204Z,95.5
2018-01-07T03:24:00.941Z,95.6
2018-01-07T03:25:00.925Z,95.5
2018-01-07T03:26:01.164Z,95.5
2018-01-07T03:27:01.162Z,94.74
2018-01-07T03:28:01.147Z,95.03
2018-01-07T03:29:01.124Z,94.65
2018-01-07T03:30:01.112Z,94.65
2018-01-07T03:31:01.109Z,94.65
2018-01-07T03:32:01.099Z,94.84
2018-01-07T03:33:01.076Z,95.6
2018-01-07T03:34:00.804Z,95.41
2018-01-07T03:35:01.053Z,95.55
2018-01-07T03:36:01.047Z,94.84
2018-01-07T03:37:01.027Z,94.79
2018-01-07T03:38:01.003Z,94.27
2018-01-07T03:39:00.997Z,94.13
2018-01-07T03:40:00.981Z,94.32
2018-01-07T03:41:00.970Z,94.42
2018-01-07T03:42:00.959Z,94.42
2018-01-07T03:43:00.939Z,94.13
2018-01-07T03:44:00.922Z,94.42
2018-01-07T03:45:00.916Z,94.13
2018-01-07T03:46:00.896Z,94.23
2018-01-07T03:47:00.626Z,94.51
2018-01-07T03:48:00.882Z,94.79
2018-01-07T03:49:00.857Z,94.98
2018-01-07T03:50:00.584Z,95.45
2018-01-07T03:51:00.834Z,95.17
2018-01-07T03:52:00.820Z,95.17
2018-01-07T03:53:00.809Z,95.65
2018-01-07T03:54:00.530Z,95.17
2018-01-07T03:55:00.783Z,95.55
2018-01-07T03:56:00.758Z,96.31
2018-01-07T03:57:00.748Z,96.03
2018-01-07T03:58:00.735Z,96.03
2018-01-07T03:59:00.721Z,95.26
2018-01-07T04:00:00.711Z,95.55
2018-01-07T04:01:00.692Z,95.55
2018-01-07T04:02:00.689Z,96.12
2018-01-07T04:03:00.673Z,96.22
2018-01-07T04:04:00.651Z,95.84
2018-01-07T04:05:00.634Z,95.93
2018-01-07T04:06:00.629Z,95.84
2018-01-07T04:07:00.353Z,96.41
2018-01-07T04:08:00.593Z,96.03
2018-01-07T04:09:00.330Z,95.93
2018-01-07T04:10:00.566Z,96.22
2018-01-07T04:11:00.553Z,95.93
2018-01-07T04:12:00.548Z,95.65
2018-01-07T04:13:00.529Z,95.65
2018-01-07T04:14:00.513Z,95.36
2018-01-07T04:15:00.508Z,95.45
2018-01-07T04:16:00.497Z,95.74
2018-01-07T04:17:00.218Z,95.36
2018-01-07T04:18:00.459Z,95.17
2018-01-07T04:19:00.440Z,95.36
2018-01-07T04:20:00.439Z,95.36
2018-01-07T04:21:00.418Z,95.55
2018-01-07T04:22:00.413Z,95.36
2018-01-07T04:23:00.388Z,95.36
2018-01-07T04:24:00.374Z,95.45
2018-01-07T04:25:00.369Z,95.26
2018-01-07T04:26:00.350Z,95.17
2018-01-07T04:27:00.341Z,95.84
2018-01-07T04:28:00.318Z,94.79
2018-01-07T04:29:00.317Z,95.36
2018-01-07T04:30:00.293Z,95.36
2018-01-07T04:31:00.285Z,95.45
2018-01-07T04:32:00.271Z,95.36
2018-01-07T04:33:00.262Z,95.65
2018-01-07T04:34:00.239Z,95.45
2018-01-07T04:35:00.237Z,95.17
2018-01-07T04:36:00.217Z,95.26
2018-01-07T04:37:00.200Z,95.55
2018-01-07T04:38:00.188Z,95.55
2018-01-07T04:39:00.175Z,95.65
2018-01-07T04:40:00.162Z,95.55
2018-01-07T04:41:00.139Z,95.74
2018-01-07T04:42:00.133Z,95.65
2018-01-07T04:43:00.113Z,96.03
2018-01-07T04:44:00.102Z,96.12
2018-01-07T04:45:00.094Z,96.03
2018-01-07T04:46:00.073Z,96.03
2018-01-07T04:47:00.060Z,95.55
2018-01-07T04:48:00.046Z,95.65
2018-01-07T04:49:00.036Z,95.36
2018-01-07T04:50:00.030Z,95.55
2018-01-07T04:50:59.745Z,95.36
2018-01-07T04:51:59.987Z,95.55
2018-01-07T04:52:59.986Z,95.17
2018-01-07T04:53:59.711Z,95.26
2018-01-07T04:54:59.945Z,95.65
2018-01-07T04:55:59.944Z,95.26
2018-01-07T04:56:59.921Z,95.55
2018-01-07T04:57:59.906Z,95.65
2018-01-07T04:58:59.642Z,95.45
2018-01-07T04:59:59.885Z,95.65
2018-01-07T05:00:59.877Z,96.12
2018-01-07T05:01:59.861Z,96.12
2018-01-07T05:02:59.860Z,96.12
2018-01-07T05:03:59.831Z,95.74
2018-01-07T05:04:59.809Z,96.12
2018-01-07T05:05:59.803Z,95.93
2018-01-07T05:06:59.792Z,96.41
2018-01-07T05:07:59.776Z,96.12
2018-01-07T05:08:59.760Z,95.93
2018-01-07T05:09:59.748Z,95.93
2018-01-07T05:10:59.725Z,95.84
2018-01-07T05:11:59.712Z,96.03
2018-01-07T05:12:59.704Z,96.41
2018-01-07T05:13:59.692Z,96.12
2018-01-07T05:14:59.674Z,96.12
2018-01-07T05:15:59.666Z,96.12
2018-01-07T05:16:59.643Z,96.03
2018-01-07T05:17:59.638Z,95.93
2018-01-07T05:18:59.627Z,96.12
2018-01-07T05:19:59.602Z,96.41
2018-01-07T05:20:59.611Z,95.74
2018-01-07T05:21:59.575Z,96.03
2018-01-07T05:22:59.567Z,95.65
2018-01-07T05:23:59.555Z,95.55
2018-01-07T05:24:59.536Z,96.03
2018-01-07T05:25:59.269Z,95.84
2018-01-07T05:26:59.505Z,96.5
2018-01-07T05:27:59.501Z,96.5
2018-01-07T05:28:59.485Z,96.03
2018-01-07T05:29:59.462Z,95.93
2018-01-07T05:30:59.450Z,96.5
2018-01-07T05:31:59.440Z,96.22
2018-01-07T05:32:59.431Z,96.12
2018-01-07T05:33:59.408Z,96.12
2018-01-07T05:34:59.407Z,95.45
2018-01-07T05:35:59.387Z,96.12
2018-01-07T05:36:59.373Z,95.26
2018-01-07T05:37:59.364Z,95.45
2018-01-07T05:38:59.349Z,95.84
2018-01-07T05:39:59.329Z,95.36
2018-01-07T05:40:59.310Z,95.45
2018-01-07T05:41:59.294Z,95.45
2018-01-07T05:42:59.285Z,95.74
2018-01-07T05:43:59.268Z,95.45
2018-01-07T05:44:59.258Z,95.26
2018-01-07T05:45:59.260Z,95.36
2018-01-07T05:46:59.228Z,95.93
2018-01-07T05:47:59.213Z,95.45
2018-01-07T05:48:59.208Z,96.03
2018-01-07T05:49:59.188Z,95.69
2018-01-07T05:50:59.172Z,96.22
2018-01-07T05:51:59.155Z,95.65
2018-01-07T05:52:58.887Z,95.93
2018-01-07T05:53:59.138Z,95.88
2018-01-07T05:54:59.124Z,96.03
2018-01-07T05:55:59.101Z,95.79
2018-01-07T05:56:59.111Z,95.79
2018-01-07T05:57:59.075Z,95.98
2018-01-07T05:58:59.065Z,95.88
2018-01-07T05:59:59.047Z,96.17
2018-01-07T06:00:59.042Z,95.98
2018-01-07T06:01:59.017Z,96.07
2018-01-07T06:02:58.751Z,95.98
2018-01-07T06:03:58.997Z,96.03
2018-01-07T06:04:58.983Z,95.69
2018-01-07T06:05:59.019Z,96.64
2018-01-07T06:06:58.955Z,96.55
2018-01-07T06:07:58.933Z,96.26
2018-01-07T06:08:58.918Z,96.83
2018-01-07T06:09:58.915Z,96.26
2018-01-07T06:10:58.893Z,96.45
2018-01-07T06:11:58.879Z,96.45
2018-01-07T06:12:58.861Z,96.07
2018-01-07T06:13:58.852Z,95.41
2018-01-07T06:14:58.850Z,95.6
2018-01-07T06:15:58.827Z,95.98
2018-01-07T06:16:58.906Z,96.07
2018-01-07T06:17:58.793Z,96.17
2018-01-07T06:18:58.776Z,96.73
2018-01-07T06:19:58.765Z,96.36
2018-01-07T06:20:58.756Z,96.45
2018-01-07T06:21:58.740Z,96.55
2018-01-07T06:22:58.730Z,96.45
2018-01-07T06:23:58.711Z,96.45
2018-01-07T06:24:58.707Z,96.55
2018-01-07T06:25:58.695Z,97.3
2018-01-07T06:26:58.678Z,97.11
2018-01-07T06:27:58.662Z,97.02
2018-01-07T06:28:58.644Z,97.11
2018-01-07T06:29:58.626Z,97.11
2018-01-07T06:30:58.612Z,97.02
2018-01-07T06:31:58.599Z,97.11
2018-01-07T06:32:58.328Z,97.11
2018-01-07T06:33:58.575Z,96.64
2018-01-07T06:34:58.563Z,96.45
2018-01-07T06:35:58.547Z,97.02
2018-01-07T06:36:58.523Z,96.73
2018-01-07T06:37:58.510Z,96.45
2018-01-07T06:38:58.508Z,96.64
2018-01-07T06:39:58.484Z,96.55
2018-01-07T06:40:58.476Z,96.36
2018-01-07T06:41:58.460Z,96.64
2018-01-07T06:42:58.441Z,96.45
2018-01-07T06:43:58.426Z,96.64
2018-01-07T06:44:58.418Z,96.64
2018-01-07T06:45:58.405Z,96.45
2018-01-07T06:46:58.389Z,96.55
2018-01-07T06:47:58.375Z,97.11
2018-01-07T06:48:58.352Z,96.64
2018-01-07T06:49:58.338Z,97.11
2018-01-07T06:50:58.328Z,96.55
2018-01-07T06:51:58.320Z,96.45
2018-01-07T06:52:58.304Z,96.55
2018-01-07T06:53:58.279Z,97.21
2018-01-07T06:54:58.264Z,96.55
2018-01-07T06:55:58.256Z,96.64
2018-01-07T06:56:58.237Z,96.92
2018-01-07T06:57:58.222Z,96.64
2018-01-07T06:58:58.217Z,97.02
2018-01-07T06:59:58.195Z,97.11
2018-01-07T07:00:58.178Z,97.11
2018-01-07T07:01:58.176Z,97.21
2018-01-07T07:02:58.160Z,97.02
2018-01-07T07:03:58.148Z,97.11
2018-01-07T07:04:58.121Z,97.02
2018-01-07T07:05:58.117Z,96.97
2018-01-07T07:06:58.096Z,96.78
2018-01-07T07:07:58.078Z,97.21
2018-01-07T07:08:58.066Z,97.16
2018-01-07T07:09:58.048Z,96.97
2018-01-07T07:10:58.045Z,97.25
2018-01-07T07:11:58.031Z,97.16
2018-01-07T07:12:58.009Z,96.97
2018-01-07T07:13:57.994Z,96.78
2018-01-07T07:14:57.976Z,97.25
2018-01-07T07:15:58.224Z,97.35
2018-01-07T07:16:57.958Z,96.88
2018-01-07T07:17:57.941Z,96.97
2018-01-07T07:18:57.926Z,97.02
2018-01-07T07:19:57.918Z,96.97
2018-01-07T07:20:57.895Z,96.88
2018-01-07T07:21:57.878Z,97.16
2018-01-07T07:22:57.861Z,96.97
2018-01-07T07:23:57.851Z,96.78
2018-01-07T07:24:57.840Z,96.97
2018-01-07T07:25:57.825Z,96.97
2018-01-07T07:26:57.810Z,97.25
2018-01-07T07:27:57.798Z,97.35
2018-01-07T07:28:57.771Z,97.06
2018-01-07T07:29:57.769Z,96.97
2018-01-07T07:30:57.493Z,96.88
2018-01-07T07:31:57.728Z,96.88
2018-01-07T07:32:57.722Z,96.97
2018-01-07T07:33:57.701Z,96.97
2018-01-07T07:34:57.684Z,97.25
2018-01-07T07:35:57.670Z,97.35
2018-01-07T07:36:57.659Z,97.25
2018-01-07T07:37:57.652Z,96.97
2018-01-07T07:38:57.629Z,96.78
2018-01-07T07:39:57.609Z,96.97
2018-01-07T07:40:57.602Z,97.25
2018-01-07T07:41:57.584Z,97.25
2018-01-07T07:42:57.567Z,97.35
2018-01-07T07:43:57.550Z,97.35
2018-01-07T07:44:57.551Z,97.44
2018-01-07T07:45:57.529Z,97.63
2018-01-07T07:46:57.506Z,97.16
2018-01-07T07:47:57.502Z,97.44
2018-01-07T07:48:57.478Z,97.44
2018-01-07T07:49:57.472Z,97.44
2018-01-07T07:50:57.449Z,97.63
2018-01-07T07:51:57.438Z,97.44
2018-01-07T07:52:57.427Z,97.44
2018-01-07T07:53:57.409Z,97.16
2018-01-07T07:54:57.392Z,97.16
2018-01-07T07:55:57.379Z,97.25
2018-01-07T07:56:57.103Z,97.82
2018-01-07T07:57:57.348Z,97.44
2018-01-07T07:58:57.336Z,97.35
2018-01-07T07:59:57.319Z,97.16
2018-01-07T08:00:57.309Z,97.44
2018-01-07T08:01:57.298Z,97.25
2018-01-07T08:02:57.284Z,96.88
2018-01-07T08:03:57.268Z,97.25
2018-01-07T08:04:56.986Z,97.54
2018-01-07T08:05:57.239Z,97.54
2018-01-07T08:06:57.216Z,97.35
2018-01-07T08:07:57.202Z,97.25
2018-01-07T08:08:57.187Z,97.63
2018-01-07T08:09:57.183Z,97.82
2018-01-07T08:10:57.156Z,97.54
2018-01-07T08:11:57.139Z,97.35
2018-01-07T08:12:57.137Z,97.54
2018-01-07T08:13:57.111Z,97.06
2018-01-07T08:14:57.096Z,97.25
2018-01-07T08:15:57.090Z,96.97
2018-01-07T08:16:57.072Z,96.97
2018-01-07T08:17:57.062Z,97.35
2018-01-07T08:18:57.045Z,97.25
2018-01-07T08:19:57.032Z,96.78
2018-01-07T08:20:56.753Z,97.06
2018-01-07T08:21:56.999Z,96.97
2018-01-07T08:22:56.983Z,96.88
2018-01-07T08:23:56.977Z,96.88
2018-01-07T08:24:56.949Z,96.97
2018-01-07T08:25:56.938Z,97.06
2018-01-07T08:26:56.919Z,96.97
2018-01-07T08:27:56.907Z,96.88
2018-01-07T08:28:56.639Z,96.97
2018-01-07T08:29:56.888Z,96.4
2018-01-07T08:30:56.861Z,96.31
2018-01-07T08:31:56.849Z,96.78
2018-01-07T08:32:56.832Z,96.4
2018-01-07T08:33:56.823Z,96.31
2018-01-07T08:34:56.814Z,97.06
2018-01-07T08:35:56.788Z,97.06
2018-01-07T08:36:56.790Z,97.06
2018-01-07T08:37:56.762Z,97.16
2018-01-07T08:38:56.743Z,96.5
2018-01-07T08:39:56.727Z,96.4
2018-01-07T08:40:56.721Z,97.06
2018-01-07T08:41:56.698Z,96.4
2018-01-07T08:42:56.691Z,96.4
2018-01-07T08:43:56.680Z,96.59
2018-01-07T08:44:56.656Z,96.4
2018-01-07T08:45:56.640Z,95.74
2018-01-07T08:46:56.627Z,95.74
2018-01-07T08:47:56.611Z,95.93
2018-01-07T08:48:56.604Z,96.59
2018-01-07T08:49:56.581Z,96.21
2018-01-07T08:50:56.574Z,96.59
2018-01-07T08:51:56.562Z,96.21
2018-01-07T08:52:56.538Z,95.83
2018-01-07T08:53:56.522Z,95.74
2018-01-07T08:54:56.509Z,95.83
2018-01-07T08:55:56.493Z,95.93
2018-01-07T08:56:56.490Z,95.83
2018-01-07T08:57:56.475Z,95.83
2018-01-07T08:58:56.464Z,95.64
2018-01-07T08:59:56.445Z,95.83
2018-01-07T09:00:56.431Z,95.64
2018-01-07T09:01:56.408Z,95.64
2018-01-07T09:02:56.400Z,95.74
2018-01-07T09:03:56.387Z,95.64
2018-01-07T09:04:56.372Z,95.83
2018-01-07T09:05:56.357Z,95.07
2018-01-07T09:06:56.330Z,95.07
2018-01-07T09:07:56.321Z,95.07
2018-01-07T09:08:56.306Z,95.07
2018-01-07T09:09:56.032Z,95.36
2018-01-07T09:10:56.277Z,95.17
2018-01-07T09:11:56.277Z,95.07
2018-01-07T09:12:56.253Z,95.17
2018-01-07T09:13:56.240Z,95.17
2018-01-07T09:14:56.250Z,94.56
2018-01-07T09:15:56.211Z,94.7
2018-01-07T09:16:55.936Z,95.17
2018-01-07T09:17:56.175Z,95.26
2018-01-07T09:18:56.167Z,95.07
2018-01-07T09:19:56.146Z,95.36
2018-01-07T09:20:56.151Z,95.45
2018-01-07T09:21:56.132Z,95.17
2018-01-07T09:22:56.102Z,94.7
2018-01-07T09:23:56.090Z,94.7
2018-01-07T09:24:56.073Z,94.32
2018-01-07T09:25:55.814Z,94.51
2018-01-07T09:26:56.055Z,94.27
2018-01-07T09:27:56.041Z,94.32
2018-01-07T09:28:56.014Z,94.32
2018-01-07T09:29:56.001Z,94.56
2018-01-07T09:30:55.999Z,94.32
2018-01-07T09:31:55.972Z,94.74
2018-01-07T09:32:55.960Z,94.65
2018-01-07T09:33:55.949Z,94.74
2018-01-07T09:34:55.941Z,94.74
2018-01-07T09:35:55.928Z,94.18
2018-01-07T09:36:55.900Z,94.27
2018-01-07T09:37:55.954Z,94.27
2018-01-07T09:38:55.875Z,94.27
2018-01-07T09:39:55.859Z,93.8
2018-01-07T09:40:55.853Z,93.99
2018-01-07T09:41:55.847Z,94.18
2018-01-07T09:42:55.836Z,94.27
2018-01-07T09:43:55.819Z,94.27
2018-01-07T09:44:55.532Z,94.08
2018-01-07T09:45:55.773Z,93.89
2018-01-07T09:46:55.768Z,94.08
2018-01-07T09:47:55.769Z,93.84
2018-01-07T09:48:55.741Z,94.18
2018-01-07T09:49:55.727Z,94.56
2018-01-07T09:50:55.723Z,94.74
2018-01-07T09:51:55.700Z,94.18
2018-01-07T09:52:55.472Z,94.18
2018-01-07T09:53:55.660Z,93.8
2018-01-07T09:54:55.648Z,94.08
2018-01-07T09:55:55.637Z,93.7
2018-01-07T09:56:55.628Z,93.7
2018-01-07T09:57:55.614Z,93.89
2018-01-07T09:58:55.593Z,93.89
2018-01-07T09:59:55.589Z,93.89
2018-01-07T10:00:55.574Z,94.08
2018-01-07T10:01:55.567Z,93.99
2018-01-07T10:02:55.281Z,93.99
2018-01-07T10:03:55.522Z,94.18
2018-01-07T10:04:55.516Z,94.18
2018-01-07T10:05:55.521Z,94.08
2018-01-07T10:06:55.490Z,94.27
2018-01-07T10:07:55.473Z,94.27
2018-01-07T10:08:55.450Z,94.08
2018-01-07T10:09:55.453Z,93.8
2018-01-07T10:10:55.432Z,93.89
2018-01-07T10:11:55.420Z,94.27
2018-01-07T10:12:55.407Z,94.08
2018-01-07T10:13:55.392Z,94.18
2018-01-07T10:14:55.385Z,94.27
2018-01-07T10:15:55.366Z,93.61
2018-01-07T10:16:55.357Z,94.18
2018-01-07T10:17:55.381Z,93.7
2018-01-07T10:18:55.318Z,93.23
2018-01-07T10:19:55.052Z,93.61
2018-01-07T10:20:55.313Z,93.13
2018-01-07T10:21:55.290Z,93.51
2018-01-07T10:22:55.269Z,93.04
2018-01-07T10:23:54.991Z,93.32
2018-01-07T10:24:55.243Z,93.32
2018-01-07T10:25:54.993Z,93.13
2018-01-07T10:26:55.212Z,93.51
2018-01-07T10:27:55.197Z,93.61
2018-01-07T10:28:55.178Z,93.13
2018-01-07T10:29:55.159Z,93.42
2018-01-07T10:30:55.167Z,93.51
2018-01-07T10:31:55.137Z,93.04
2018-01-07T10:32:55.129Z,93.13
2018-01-07T10:33:54.855Z,93.04
2018-01-07T10:34:55.098Z,93.32
2018-01-07T10:35:55.087Z,92.94
2018-01-07T10:36:55.070Z,92.76
2018-01-07T10:37:54.799Z,93.23
2018-01-07T10:38:55.045Z,92.94
2018-01-07T10:39:55.031Z,92.9
2018-01-07T10:40:55.017Z,92.71
2018-01-07T10:41:54.996Z,92.52
2018-01-07T10:42:54.991Z,92.52
2018-01-07T10:43:54.979Z,91.66
2018-01-07T10:44:54.958Z,91.47
2018-01-07T10:45:54.940Z,91.85
2018-01-07T10:46:54.933Z,91.95
2018-01-07T10:47:54.926Z,92.04
2018-01-07T10:48:54.964Z,91.95
2018-01-07T10:49:54.894Z,91.9
2018-01-07T10:50:54.880Z,92.28
2018-01-07T10:51:54.866Z,92.94
2018-01-07T10:52:54.870Z,93.13
2018-01-07T10:53:54.839Z,93.32
2018-01-07T10:54:54.827Z,93.32
2018-01-07T10:55:54.818Z,93.42
2018-01-07T10:56:54.543Z,92.94
2018-01-07T10:57:54.796Z,92.19
2018-01-07T10:58:54.784Z,92.28
2018-01-07T10:59:54.762Z,92.28
2018-01-07T11:00:54.738Z,92.47
2018-01-07T11:01:54.723Z,92.19
2018-01-07T11:02:54.727Z,91.9
2018-01-07T11:03:54.696Z,91.52
2018-01-07T11:04:54.434Z,91.71
2018-01-07T11:05:54.674Z,92.19
2018-01-07T11:06:54.671Z,92
2018-01-07T11:07:54.651Z,91.9
2018-01-07T11:08:54.638Z,91.62
2018-01-07T11:09:54.645Z,92.66
2018-01-07T11:10:54.611Z,92.76
2018-01-07T11:11:54.602Z,92.47
2018-01-07T11:12:54.577Z,91.81
2018-01-07T11:13:54.576Z,91.9
2018-01-07T11:14:54.569Z,91.62
2018-01-07T11:15:54.554Z,91.81
2018-01-07T11:16:54.544Z,91.71
2018-01-07T11:17:54.556Z,91.9
2018-01-07T11:18:54.519Z,91.43
2018-01-07T11:19:54.243Z,92.19
2018-01-07T11:20:54.487Z,91.9
2018-01-07T11:21:54.470Z,92.09
2018-01-07T11:22:54.449Z,91.81
2018-01-07T11:23:54.436Z,92.04
2018-01-07T11:24:54.418Z,92.14
2018-01-07T11:25:54.426Z,91.76
2018-01-07T11:26:54.392Z,92.04
2018-01-07T11:27:54.375Z,91.76
2018-01-07T11:28:54.372Z,91.76
2018-01-07T11:29:54.362Z,92.04
2018-01-07T11:30:54.384Z,91.76
2018-01-07T11:31:54.322Z,91.66
2018-01-07T11:32:54.311Z,90.91
2018-01-07T11:33:54.293Z,91.09
2018-01-07T11:34:54.288Z,91.47
2018-01-07T11:35:54.283Z,91.57
2018-01-07T11:36:54.283Z,91.57
2018-01-07T11:37:54.252Z,90.72
2018-01-07T11:38:54.230Z,90.62
2018-01-07T11:39:54.217Z,90.53
2018-01-07T11:40:54.217Z,91
2018-01-07T11:41:54.201Z,90.91
2018-01-07T11:42:54.192Z,91.38
2018-01-07T11:43:54.170Z,90.53
2018-01-07T11:44:54.149Z,90.43
2018-01-07T11:45:54.145Z,90.81
2018-01-07T11:46:54.142Z,91
2018-01-07T11:47:54.107Z,90.24
2018-01-07T11:48:54.110Z,90.43
2018-01-07T11:49:54.088Z,90.43
2018-01-07T11:50:54.067Z,90.62
2018-01-07T11:51:54.094Z,90.43
2018-01-07T11:52:54.044Z,91.09
2018-01-07T11:53:54.036Z,90.91
2018-01-07T11:54:54.014Z,90.62
2018-01-07T11:55:54.021Z,90.91
2018-01-07T11:56:53.996Z,90.81
2018-01-07T11:57:53.993Z,91
2018-01-07T11:58:53.965Z,91.09
2018-01-07T11:59:53.958Z,91.57
2018-01-07T12:00:53.954Z,90.72
2018-01-07T12:01:53.941Z,91.47
2018-01-07T12:02:53.917Z,91.66
2018-01-07T12:03:53.908Z,91.85
2018-01-07T12:04:53.898Z,91.66
2018-01-07T12:05:53.885Z,91.85
2018-01-07T12:06:53.856Z,91.66
2018-01-07T12:07:53.856Z,91
2018-01-07T12:08:53.841Z,91.09
2018-01-07T12:09:53.596Z,90.53
2018-01-07T12:10:53.807Z,90.24
2018-01-07T12:11:53.822Z,90.62
2018-01-07T12:12:53.787Z,90.62
2018-01-07T12:13:53.775Z,90.62
2018-01-07T12:14:53.772Z,90.43
2018-01-07T12:15:53.740Z,90.91
2018-01-07T12:16:53.754Z,91
2018-01-07T12:17:53.466Z,91.47
2018-01-07T12:18:53.701Z,91.66
2018-01-07T12:19:53.689Z,91.57
2018-01-07T12:20:53.417Z,91.38
2018-01-07T12:21:53.669Z,91.19
2018-01-07T12:22:53.658Z,91.47
2018-01-07T12:23:53.635Z,91.47
2018-01-07T12:24:53.632Z,90.81
2018-01-07T12:25:53.613Z,91
2018-01-07T12:26:53.604Z,91.09
2018-01-07T12:27:53.588Z,91.47
2018-01-07T12:28:53.574Z,91.85
2018-01-07T12:29:53.303Z,91.76
2018-01-07T12:30:53.540Z,92.04
2018-01-07T12:31:53.527Z,91.85
2018-01-07T12:32:53.514Z,91.85
2018-01-07T12:33:53.500Z,91.9
2018-01-07T12:34:53.491Z,92.33
2018-01-07T12:35:53.485Z,92.33
2018-01-07T12:36:53.463Z,92.28
2018-01-07T12:37:53.446Z,92.33
2018-01-07T12:38:53.438Z,92.9
2018-01-07T12:39:53.446Z,92.8
2018-01-07T12:40:53.416Z,92.23
2018-01-07T12:41:53.402Z,92.42
2018-01-07T12:42:53.128Z,92.14
2018-01-07T12:43:53.112Z,92.52
2018-01-07T12:44:53.372Z,92.99
2018-01-07T12:45:53.353Z,92.8
2018-01-07T12:46:53.336Z,92.8
2018-01-07T12:47:53.065Z,92.99
2018-01-07T12:48:53.305Z,92.42
2018-01-07T12:49:53.312Z,92.61
2018-01-07T12:50:53.292Z,92.61
2018-01-07T12:51:53.263Z,92.52
2018-01-07T12:52:53.255Z,92.52
2018-01-07T12:53:53.244Z,91.76
2018-01-07T12:54:53.223Z,91.38